Time;durP1;ratioP1;P1;durP2;ratioP2;P2;SDS_P1;SDS_P2;PMS_P1;PMS_P2;Temp;Humidity;BMP_temperature;BMP_pressure;BME280_temperature;BME280_humidity;BME280_pressure;Samples;Min_cycle;Max_cycle;Signal;HPM_P1;HPM_P2
2022/11/14 00:02:28;;;;;;;20.60;16.07;;;;;;;2.87;100.00;96424.31;5029863;28;101684;-68
2022/11/14 00:05:48;;;;;;;43.27;16.33;;;;;;;2.78;100.00;96429.97;5029541;28;101994;-68
2022/11/14 00:08:34;;;;;;;15.90;14.20;;;;;;;2.65;100.00;96448.31;5008997;28;102282;-68
2022/11/14 00:11:19;;;;;;;55.63;15.40;;;;;;;2.30;100.00;96439.75;5019923;28;101823;-68
2022/11/14 00:14:06;;;;;;;16.50;14.43;;;;;;;2.10;100.00;96441.53;5029234;28;102053;-68
2022/11/14 00:16:51;;;;;;;20.43;13.40;;;;;;;2.11;100.00;96442.31;5032309;28;101745;-68
2022/11/14 00:19:37;;;;;;;14.93;13.43;;;;;;;2.25;100.00;96426.44;5029144;28;102068;-68
2022/11/14 00:23:13;;;;;;;38.60;14.30;;;;;;;2.35;100.00;96431.31;5028705;28;101952;-68
2022/11/14 00:25:59;;;;;;;17.53;13.60;;;;;;;2.06;100.00;96432.44;5018497;28;102178;-68
2022/11/14 00:28:44;;;;;;;15.97;13.93;;;;;;;2.11;100.00;96429.22;5018829;27;102075;-68
2022/11/14 00:31:31;;;;;;;21.90;13.97;;;;;;;2.23;100.00;96436.31;5007527;28;102931;-68
2022/11/14 00:34:17;;;;;;;14.13;12.73;;;;;;;2.23;100.00;96448.63;5016581;28;102293;-68
2022/11/14 00:37:27;;;;;;;14.07;12.57;;;;;;;2.18;100.00;96440.56;5018328;28;102154;-68
2022/11/14 00:40:13;;;;;;;14.10;12.60;;;;;;;2.06;100.00;96423.75;5019336;27;101989;-68
2022/11/14 00:43:16;;;;;;;16.33;12.10;;;;;;;1.93;100.00;96416.66;5030703;28;102403;-68
2022/11/14 00:46:01;;;;;;;12.93;11.63;;;;;;;1.85;100.00;96410.75;5009476;27;102265;-68
2022/11/14 00:48:48;;;;;;;15.23;12.50;;;;;;;1.78;100.00;96404.69;5021755;27;102445;-68
2022/11/14 00:51:34;;;;;;;13.33;11.43;;;;;;;1.60;100.00;96392.09;5016547;28;102129;-68
2022/11/14 00:54:20;;;;;;;13.83;12.43;;;;;;;1.65;100.00;96396.78;5023891;27;102423;-68
2022/11/14 00:57:05;;;;;;;13.43;12.10;;;;;;;1.61;100.00;96406.84;5027247;27;102423;-68
2022/11/14 00:59:54;;;;;;;13.43;12.13;;;;;;;1.66;100.00;96408.88;5015688;27;102073;-68
2022/11/14 01:02:55;;;;;;;13.13;11.73;;;;;;;1.80;100.00;96402.69;5009238;28;101723;-68
2022/11/14 01:05:52;;;;;;;14.00;12.60;;;;;;;1.88;100.00;96407.75;5008533;28;101740;-68
2022/11/14 01:08:38;;;;;;;14.83;13.33;;;;;;;1.77;100.00;96405.69;5014143;28;102200;-68
2022/11/14 01:11:24;;;;;;;12.63;11.47;;;;;;;1.71;100.00;96403.84;5030237;28;101695;-68
2022/11/14 01:14:09;;;;;;;10.87;9.77;;;;;;;1.70;100.00;96410.09;5028501;28;102049;-68
2022/11/14 01:16:55;;;;;;;11.60;10.50;;;;;;;1.58;100.00;96396.72;5028698;28;102307;-68
2022/11/14 01:19:41;;;;;;;11.53;10.43;;;;;;;1.60;100.00;96394.72;5028239;28;101836;-68
2022/11/14 01:22:32;;;;;;;11.00;10.00;;;;;;;1.68;100.00;96391.13;5028211;28;102111;-68
2022/11/14 01:25:18;;;;;;;11.53;10.43;;;;;;;1.42;100.00;96391.03;5027692;28;102242;-68
2022/11/14 01:28:05;;;;;;;11.57;10.23;;;;;;;1.10;100.00;96397.66;5028575;28;101728;-68
2022/11/14 01:30:51;;;;;;;12.10;10.73;;;;;;;1.08;100.00;96396.22;5027517;28;102098;-68
2022/11/14 01:33:40;;;;;;;12.47;11.20;;;;;;;1.18;100.00;96400.16;5030915;28;101701;-68
2022/11/14 01:36:49;;;;;;;15.50;13.07;;;;;;;1.22;100.00;96408.44;5031758;28;102061;-68
2022/11/14 01:39:36;;;;;;;36.83;13.77;;;;;;;1.20;100.00;96405.19;5027244;28;102295;-68
2022/11/14 01:42:24;;;;;;;46.03;13.90;;;;;;;1.05;100.00;96396.63;5031343;28;101691;-68
2022/11/14 01:45:46;;;;;;;87.60;15.20;;;;;;;1.09;100.00;96390.81;5027791;28;102077;-68
2022/11/14 01:48:37;;;;;;;13.47;12.07;;;;;;;1.07;100.00;96371.06;5030405;28;102234;-68
2022/11/14 01:51:27;;;;;;;14.13;12.63;;;;;;;1.20;100.00;96358.84;5027910;28;101668;-68
2022/11/14 01:54:17;;;;;;;13.77;12.20;;;;;;;1.30;100.00;96353.25;5027871;28;102097;-68
2022/11/14 01:57:07;;;;;;;13.13;11.83;;;;;;;1.31;100.00;96347.81;5031132;28;102218;-68
2022/11/14 01:59:56;;;;;;;12.77;11.47;;;;;;;1.19;100.00;96352.00;5027943;28;102069;-68
2022/11/14 02:02:47;;;;;;;12.50;11.30;;;;;;;1.23;100.00;96349.81;5007165;28;102240;-68
2022/11/14 02:05:35;;;;;;;12.33;11.13;;;;;;;1.28;100.00;96352.66;5026004;28;101886;-68
2022/11/14 02:08:21;;;;;;;12.37;10.90;;;;;;;1.28;100.00;96347.41;5030990;28;102074;-68
2022/11/14 02:11:10;;;;;;;12.67;10.60;;;;;;;1.21;100.00;96351.81;5028724;28;102209;-68
2022/11/14 02:14:12;;;;;;;11.33;10.17;;;;;;;1.07;100.00;96339.63;5027794;28;102387;-68
2022/11/14 02:16:58;;;;;;;12.03;10.83;;;;;;;1.03;100.00;96339.22;5026978;27;102045;-68
2022/11/14 02:19:46;;;;;;;11.83;10.63;;;;;;;1.06;100.00;96353.72;5027167;28;102235;-68
2022/11/14 02:22:36;;;;;;;13.40;12.00;;;;;;;1.15;100.00;96337.66;5030907;28;101979;-68
2022/11/14 02:25:21;;;;;;;11.77;10.37;;;;;;;1.09;100.00;96329.78;5026951;28;102222;-68
2022/11/14 02:28:09;;;;;;;11.93;10.67;;;;;;;1.22;100.00;96332.47;5027839;28;102029;-68
2022/11/14 02:30:55;;;;;;;12.30;11.10;;;;;;;1.27;100.00;96338.72;5027310;28;102080;-68
2022/11/14 02:33:53;;;;;;;12.03;10.87;;;;;;;1.26;100.00;96344.97;5026625;28;102581;-68
2022/11/14 02:37:20;;;;;;;12.27;10.43;;;;;;;1.22;100.00;96353.44;5007537;28;101921;-68
2022/11/14 02:40:09;;;;;;;11.23;9.80;;;;;;;1.17;100.00;96342.72;5021577;28;102055;-68
2022/11/14 02:43:03;;;;;;;10.33;9.33;;;;;;;0.95;100.00;96349.84;5027132;28;102237;-68
2022/11/14 02:45:48;;;;;;;10.67;9.67;;;;;;;0.90;100.00;96359.28;5028801;28;101852;-68
2022/11/14 02:48:34;;;;;;;12.87;11.60;;;;;;;0.95;100.00;96339.38;5030814;28;103591;-68
2022/11/14 02:51:20;;;;;;;15.10;11.73;;;;;;;0.98;100.00;96343.41;5007307;28;101887;-68
2022/11/14 02:54:05;;;;;;;14.97;11.43;;;;;;;0.92;100.00;96337.13;5012966;28;102075;-68
2022/11/14 02:56:52;;;;;;;12.17;10.97;;;;;;;0.89;100.00;96347.97;5026747;28;102106;-68
2022/11/14 02:59:38;;;;;;;13.90;11.50;;;;;;;0.86;100.00;96361.47;5027086;28;101688;-68
2022/11/14 03:02:27;;;;;;;13.63;12.23;;;;;;;0.86;100.00;96360.63;5026971;28;102116;-68
2022/11/14 03:05:25;;;;;;;15.67;12.93;;;;;;;0.89;100.00;96355.81;5026410;28;102217;-68
2022/11/14 03:08:12;;;;;;;13.20;11.83;;;;;;;1.03;100.00;96359.34;5026917;28;101876;-68
2022/11/14 03:11:04;;;;;;;13.97;12.57;;;;;;;1.03;100.00;96359.34;5028253;28;102081;-68
2022/11/14 03:14:08;;;;;;;13.07;11.70;;;;;;;1.04;100.00;96347.91;5029440;28;101892;-68
2022/11/14 03:16:55;;;;;;;13.87;12.40;;;;;;;1.13;100.00;96349.34;5026834;28;102036;-68
2022/11/14 03:19:41;;;;;;;11.97;10.77;;;;;;;1.17;100.00;96348.78;5026156;28;102236;-68
2022/11/14 03:22:29;;;;;;;10.90;9.80;;;;;;;1.09;100.00;96341.06;5026579;28;102089;-68
2022/11/14 03:25:15;;;;;;;11.17;10.07;;;;;;;1.07;100.00;96337.03;5027868;28;102081;-68
2022/11/14 03:28:00;;;;;;;11.40;10.30;;;;;;;1.04;100.00;96335.59;5026485;28;102220;-68
2022/11/14 03:30:48;;;;;;;11.13;10.03;;;;;;;0.88;100.00;96327.25;5029843;28;101664;-68
2022/11/14 03:34:15;;;;;;;11.67;10.57;;;;;;;0.98;100.00;96333.75;5029963;28;102075;-68
2022/11/14 03:37:25;;;;;;;11.40;10.30;;;;;;;1.02;100.00;96336.78;5009771;28;102232;-68
2022/11/14 03:40:11;;;;;;;11.40;10.30;;;;;;;1.02;100.00;96337.59;5027725;28;101725;-68
2022/11/14 03:43:07;;;;;;;11.83;10.63;;;;;;;1.04;100.00;96335.59;5029509;28;102209;-68
2022/11/14 03:45:54;;;;;;;11.83;10.63;;;;;;;1.01;100.00;96330.75;5030647;28;101875;-68
2022/11/14 03:48:39;;;;;;;11.97;10.60;;;;;;;0.89;100.00;96331.47;5030006;28;101695;-68
2022/11/14 03:51:24;;;;;;;12.27;11.07;;;;;;;0.89;100.00;96331.47;5029474;28;102359;-68
2022/11/14 03:54:10;;;;;;;11.53;10.43;;;;;;;0.86;100.00;96337.09;5029718;28;101851;-68
2022/11/14 03:56:55;;;;;;;11.27;10.20;;;;;;;0.72;100.00;96335.41;5030176;28;102049;-68
2022/11/14 03:59:40;;;;;;;12.10;10.93;;;;;;;0.60;100.00;96337.72;5028908;28;102251;-68
2022/11/14 04:02:38;;;;;;;11.87;10.77;;;;;;;0.60;100.00;96336.94;5033149;28;101732;-68
2022/11/14 04:05:28;;;;;;;12.57;10.70;;;;;;;0.58;100.00;96328.44;5029118;28;102221;-68
2022/11/14 04:08:14;;;;;;;33.93;11.17;;;;;;;0.43;100.00;96330.31;5029603;28;103322;-68
2022/11/14 04:10:59;;;;;;;69.90;13.57;;;;;;;0.37;100.00;96325.84;5030849;28;102081;-68
2022/11/14 04:13:54;;;;;;;12.63;11.27;;;;;;;0.39;100.00;96321.25;5029420;28;102252;-68
2022/11/14 04:16:39;;;;;;;53.17;14.30;;;;;;;0.42;100.00;96336.56;5029553;28;101764;-68
2022/11/14 04:19:27;;;;;;;39.97;13.80;;;;;;;0.35;100.00;96327.84;5029676;28;101815;-68
2022/11/14 04:22:16;;;;;;;13.37;11.97;;;;;;;0.58;100.00;96334.50;5028928;28;101791;-68
2022/11/14 04:25:02;;;;;;;18.20;13.23;;;;;;;0.59;100.00;96330.88;5029174;28;101829;-68
2022/11/14 04:27:48;;;;;;;14.30;12.80;;;;;;;0.67;100.00;96333.31;5032445;28;102139;-68
2022/11/14 04:30:33;;;;;;;14.57;13.07;;;;;;;0.75;100.00;96319.28;5029381;28;101704;-68
2022/11/14 04:33:31;;;;;;;19.83;13.43;;;;;;;0.70;100.00;96321.69;5029053;28;102104;-68
2022/11/14 04:36:23;;;;;;;21.10;12.13;;;;;;;0.69;100.00;96320.88;5028647;28;102298;-68
2022/11/14 04:39:08;;;;;;;17.23;12.17;;;;;;;0.57;100.00;96322.41;5028680;28;101831;-67
2022/11/14 04:41:55;;;;;;;12.10;10.90;;;;;;;0.67;100.00;96327.31;5029102;28;102247;-68
2022/11/14 04:44:40;;;;;;;19.53;16.50;;;;;;;0.43;100.00;96339.00;5028789;28;102229;-68
2022/11/14 04:47:26;;;;;;;24.27;18.93;;;;;;;0.62;100.00;96337.53;5028698;28;101843;-68
2022/11/14 04:50:12;;;;;;;17.37;14.70;;;;;;;0.58;100.00;96334.50;5022227;28;102048;-68
2022/11/14 04:53:29;;;;;;;21.20;16.17;;;;;;;0.49;100.00;96321.72;5031974;28;102250;-68
2022/11/14 04:56:14;;;;;;;14.90;13.37;;;;;;;0.44;100.00;96331.97;5028933;28;102060;-68
2022/11/14 04:59:00;;;;;;;15.40;13.40;;;;;;;0.50;100.00;96318.91;5028509;28;101704;-68
2022/11/14 05:01:59;;;;;;;14.33;12.90;;;;;;;0.65;100.00;96314.41;5028831;28;101977;-68
2022/11/14 05:04:47;;;;;;;14.33;12.83;;;;;;;0.55;100.00;96311.31;5028576;28;102053;-68
2022/11/14 05:07:32;;;;;;;14.70;13.17;;;;;;;0.59;100.00;96309.13;5028343;28;102375;-68
2022/11/14 05:10:19;;;;;;;13.73;12.33;;;;;;;0.65;100.00;96331.91;5028909;28;101659;-68
2022/11/14 05:13:15;;;;;;;14.73;13.23;;;;;;;0.61;100.00;96328.88;5028812;28;102069;-68
2022/11/14 05:16:01;;;;;;;14.77;13.27;;;;;;;0.73;100.00;96332.56;5027925;28;102244;-68
2022/11/14 05:18:47;;;;;;;13.40;12.10;;;;;;;0.78;100.00;96332.81;5032361;28;101687;-68
2022/11/14 05:21:46;;;;;;;14.43;13.03;;;;;;;0.79;100.00;96339.69;5027935;28;102220;-68
2022/11/14 05:24:32;;;;;;;14.03;12.63;;;;;;;0.83;100.00;96353.19;5028723;28;101724;-68
2022/11/14 05:27:20;;;;;;;14.83;12.60;;;;;;;0.89;100.00;96352.41;5028023;28;102031;-68
2022/11/14 05:30:07;;;;;;;14.97;13.40;;;;;;;0.89;100.00;96352.41;5027679;28;101759;-68
2022/11/14 05:33:03;;;;;;;14.00;12.60;;;;;;;0.67;100.00;96338.56;5028227;28;101711;-68
2022/11/14 05:36:09;;;;;;;12.50;11.30;;;;;;;0.47;100.00;96342.03;5028383;28;102045;-68
2022/11/14 05:38:54;;;;;;;12.70;11.40;;;;;;;0.49;100.00;96338.22;5027551;28;102260;-68
2022/11/14 05:41:47;;;;;;;12.60;11.50;;;;;;;0.61;100.00;96341.94;5028133;28;101688;-68
2022/11/14 05:44:34;;;;;;;13.77;12.37;;;;;;;0.52;100.00;96340.47;5031159;28;102058;-68
2022/11/14 05:47:19;;;;;;;13.40;12.10;;;;;;;0.53;100.00;96346.50;5030705;28;102220;-68
2022/11/14 05:50:06;;;;;;;13.07;11.77;;;;;;;0.52;100.00;96352.75;5027779;28;103511;-68
2022/11/14 05:53:00;;;;;;;13.30;12.00;;;;;;;0.57;100.00;96359.03;5026640;27;102251;-68
2022/11/14 05:55:46;;;;;;;13.43;12.13;;;;;;;0.67;100.00;96364.72;5027721;28;101854;-68
2022/11/14 05:58:32;;;;;;;13.87;12.57;;;;;;;0.68;100.00;96362.94;5028154;28;102106;-68
2022/11/14 06:01:20;;;;;;;15.90;14.30;;;;;;;0.66;100.00;96364.94;5027017;28;102639;-68
2022/11/14 06:04:06;;;;;;;14.67;13.27;;;;;;;0.61;100.00;96370.72;5027708;28;101670;-68
2022/11/14 06:06:57;;;;;;;14.67;13.17;;;;;;;0.74;100.00;96367.41;5028091;28;102085;-68
2022/11/14 06:09:42;;;;;;;15.10;13.60;;;;;;;0.73;100.00;96376.25;5030880;28;102220;-68
2022/11/14 06:12:56;;;;;;;16.50;14.90;;;;;;;0.62;100.00;96382.00;5030578;28;102053;-68
2022/11/14 06:15:41;;;;;;;16.03;14.43;;;;;;;0.59;100.00;96370.13;5027381;28;102239;-68
2022/11/14 06:18:29;;;;;;;13.20;11.90;;;;;;;0.76;100.00;96375.88;5027742;28;101683;-68
2022/11/14 06:21:16;;;;;;;14.17;11.87;;;;;;;0.68;100.00;96368.16;5027791;28;102262;-68
2022/11/14 06:24:43;;;;;;;12.10;10.70;;;;;;;0.59;100.00;96374.53;5026879;28;102229;-68
2022/11/14 06:27:29;;;;;;;12.73;11.43;;;;;;;0.72;100.00;96382.50;5027283;28;101943;-68
2022/11/14 06:30:14;;;;;;;15.67;12.73;;;;;;;0.61;100.00;96370.72;5027487;28;102054;-66
2022/11/14 06:33:09;;;;;;;16.63;14.20;;;;;;;0.63;100.00;96373.16;5030340;28;102242;-66
2022/11/14 06:35:59;;;;;;;14.80;13.23;;;;;;;0.68;100.00;96382.06;5027341;28;102189;-66
2022/11/14 06:38:45;;;;;;;13.87;12.30;;;;;;;0.84;100.00;96396.69;5026879;28;102227;-66
2022/11/14 06:45:12;;;;;;;16.07;14.43;;;;;;;1.00;100.00;96393.78;5029879;28;102255;-66
2022/11/14 06:47:59;;;;;;;15.40;13.67;;;;;;;1.05;100.00;96394.00;5026886;28;102194;-66
2022/11/14 06:50:51;;;;;;;14.93;13.43;;;;;;;1.13;100.00;96396.47;5027175;28;101738;-66
2022/11/14 06:53:43;;;;;;;16.00;13.37;;;;;;;1.19;100.00;96400.94;5030827;28;101723;-66
2022/11/14 06:56:28;;;;;;;15.77;13.67;;;;;;;1.25;100.00;96400.16;5026522;28;102220;-66
2022/11/14 06:59:14;;;;;;;14.87;13.37;;;;;;;1.20;100.00;96392.91;5030291;28;101691;-66
2022/11/14 07:02:15;;;;;;;14.03;12.53;;;;;;;1.23;100.00;96383.84;5026166;28;102287;-66
2022/11/14 07:05:41;;;;;;;13.83;12.50;;;;;;;1.19;100.00;96385.22;5027041;28;101961;-66
2022/11/14 07:08:26;;;;;;;15.13;13.33;;;;;;;1.23;100.00;96392.53;5026852;28;102065;-66
2022/11/14 07:11:21;;;;;;;15.70;13.80;;;;;;;1.23;100.00;96387.28;5027750;28;102246;-66
2022/11/14 07:14:07;;;;;;;15.60;13.90;;;;;;;1.15;100.00;96394.50;5026766;28;101668;-66
2022/11/14 07:16:52;;;;;;;14.50;13.10;;;;;;;1.32;100.00;96401.03;5026888;28;102041;-66
2022/11/14 07:19:37;;;;;;;15.67;14.03;;;;;;;1.40;100.00;96408.72;5026176;28;102226;-66
2022/11/14 07:22:31;;;;;;;16.10;14.27;;;;;;;1.54;100.00;96405.97;5006777;28;101765;-66
2022/11/14 07:25:16;;;;;;;17.93;16.00;;;;;;;1.51;100.00;96392.47;5013734;28;102071;-66
2022/11/14 07:28:03;;;;;;;17.43;14.30;;;;;;;1.60;100.00;96397.34;5026466;28;103087;-66
2022/11/14 07:30:49;;;;;;;18.47;15.57;;;;;;;1.62;100.00;96397.16;5026708;28;102060;-66
2022/11/14 07:33:42;;;;;;;19.83;17.63;;;;;;;1.81;100.00;96397.22;5026057;28;102211;-66
2022/11/14 07:36:29;;;;;;;20.43;17.67;;;;;;;1.82;100.00;96398.06;5026353;28;101679;-66
2022/11/14 07:39:14;;;;;;;22.80;17.67;;;;;;;2.06;100.00;96389.66;5006592;28;102047;-66
2022/11/14 07:42:00;;;;;;;22.20;16.40;;;;;;;2.10;100.00;96385.63;5010686;28;102217;-66
2022/11/14 07:44:47;;;;;;;15.70;14.10;;;;;;;1.96;100.00;96383.97;5026209;28;101783;-66
2022/11/14 07:47:33;;;;;;;14.83;12.90;;;;;;;2.06;100.00;96384.41;5015507;28;101688;-66
2022/11/14 07:50:18;;;;;;;13.67;11.87;;;;;;;2.20;100.00;96375.56;5029704;28;102269;-66
2022/11/14 07:53:49;;;;;;;11.80;10.63;;;;;;;2.06;100.00;96376.53;5026315;28;102112;-66
2022/11/14 07:56:34;;;;;;;13.20;11.90;;;;;;;1.95;100.00;96369.25;5024280;28;102245;-69
2022/11/14 07:59:20;;;;;;;14.97;11.77;;;;;;;2.16;100.00;96371.72;5025553;28;102985;-68
2022/11/14 08:02:25;;;;;;;12.10;10.80;;;;;;;2.41;100.00;96367.53;5026350;28;102061;-67
2022/11/14 08:05:15;;;;;;;11.20;10.13;;;;;;;2.72;100.00;96367.75;5005810;28;102275;-71
2022/11/14 08:08:01;;;;;;;12.73;11.43;;;;;;;3.10;100.00;96360.84;5015231;28;101924;-67
2022/11/14 08:10:46;;;;;;;13.73;12.37;;;;;;;3.45;100.00;96362.97;5026212;28;102150;-66
2022/11/14 08:17:12;;;;;;;13.33;12.03;;;;;;;4.00;100.00;96348.41;5031246;28;102248;-66
2022/11/14 08:19:59;;;;;;;13.77;12.37;;;;;;;4.17;100.00;96363.50;5027717;28;102293;-67
2022/11/14 08:22:46;;;;;;;13.83;12.47;;;;;;;4.50;100.00;96355.41;5024679;28;102028;-66
2022/11/14 08:25:31;;;;;;;13.13;11.73;;;;;;;4.79;100.00;96354.75;5026066;28;102086;-67
2022/11/14 08:28:17;;;;;;;14.27;11.83;;;;;;;4.76;100.00;96355.22;5028271;28;102376;-68
2022/11/14 08:31:04;;;;;;;13.20;11.83;;;;;;;4.58;100.00;96340.13;5028877;28;102070;-67
2022/11/14 08:34:15;;;;;;;11.17;10.07;;;;;;;4.76;100.00;96336.78;5027212;28;103541;-68
2022/11/14 08:37:10;;;;;;;11.37;10.27;;;;;;;5.47;100.00;96343.19;5027896;28;102233;-68
2022/11/14 08:39:55;;;;;;;10.80;9.80;;;;;;;5.84;100.00;96336.91;5020518;28;101656;-68
2022/11/14 08:43:10;;;;;;;11.27;10.20;;;;;;;6.13;100.00;96336.09;5032389;28;102084;-64
2022/11/14 08:45:58;;;;;;;11.00;9.90;;;;;;;6.30;100.00;96327.34;5029164;28;103604;-66
2022/11/14 08:48:44;;;;;;;11.43;10.33;;;;;;;6.62;100.00;96338.44;5029170;28;102108;-66
2022/11/14 08:51:29;;;;;;;11.50;10.40;;;;;;;6.93;100.00;96338.16;5028332;28;102203;-67
2022/11/14 08:54:17;;;;;;;11.87;10.67;;;;;;;7.21;100.00;96331.13;5008753;28;101913;-67
2022/11/14 08:57:03;;;;;;;11.80;9.73;;;;;;;7.38;100.00;96318.84;5012614;28;102100;-67
2022/11/14 08:59:49;;;;;;;11.93;10.43;;;;;;;7.53;100.00;96319.13;5028754;28;102218;-67
2022/11/14 09:02:40;;;;;;;11.07;10.03;;;;;;;7.91;100.00;96316.75;5028638;28;101697;-67
2022/11/14 09:05:28;;;;;;;11.50;9.90;;;;;;;8.24;100.00;96310.78;5031240;28;102081;-67
2022/11/14 09:08:13;;;;;;;11.33;9.33;;;;;;;8.42;100.00;96318.53;5009692;28;101780;-67
2022/11/14 09:11:02;;;;;;;10.50;9.10;;;;;;;8.56;100.00;96317.19;5026993;28;102046;-67
2022/11/14 09:14:42;;;;;;;11.20;9.17;;;;;;;8.70;100.00;96305.22;5028527;28;102243;-67
2022/11/14 09:17:28;;;;;;;8.57;7.77;;;;;;;9.08;100.00;96313.25;5029292;28;101653;-67
2022/11/14 09:20:13;;;;;;;8.90;7.27;;;;;;;9.25;100.00;96301.59;5028530;28;102296;-66
2022/11/14 09:23:10;;;;;;;6.53;5.93;;;;;;;9.23;100.00;96302.88;5008432;28;102293;-66
2022/11/14 09:25:56;;;;;;;7.03;6.33;;;;;;;9.53;100.00;96306.75;5008433;28;101918;-65
2022/11/14 09:28:43;;;;;;;7.37;6.67;;;;;;;9.75;100.00;96298.81;5013052;28;102075;-67
2022/11/14 09:31:29;;;;;;;9.33;6.80;;;;;;;9.95;100.00;96309.66;5031978;28;102232;-67
2022/11/14 09:34:15;;;;;;;6.93;6.30;;;;;;;10.19;100.00;96303.84;5028572;28;102049;-67
2022/11/14 09:37:34;;;;;;;9.83;5.97;;;;;;;10.31;100.00;96301.06;5028418;28;102785;-66
2022/11/14 09:40:20;;;;;;;7.53;5.93;;;;;;;10.31;100.00;96301.06;5028426;28;101949;-69
2022/11/14 09:43:33;;;;;;;6.47;5.83;;;;;;;10.66;100.00;96296.88;5028051;28;102089;-66
2022/11/14 09:46:24;;;;;;;7.47;5.80;;;;;;;10.87;100.00;96304.00;5029518;28;102259;-67
2022/11/14 09:49:17;;;;;;;7.10;5.53;;;;;;;11.19;100.00;96290.66;5028295;28;101970;-66
2022/11/14 09:52:21;;;;;;;6.10;5.60;;;;;;;11.41;100.00;96293.97;5028340;28;102045;-66
2022/11/14 09:55:12;;;;;;;6.03;5.30;;;;;;;11.38;100.00;96289.97;5027915;28;102688;-68
2022/11/14 09:57:58;;;;;;;5.70;5.10;;;;;;;11.47;100.00;96280.44;5032038;28;101770;-68
2022/11/14 10:00:50;;;;;;;5.70;5.20;;;;;;;11.58;100.00;96278.63;5027308;28;102380;-68
2022/11/14 10:03:51;;;;;;;5.37;4.87;;;;;;;11.66;100.00;96275.53;5028236;28;101770;-68
2022/11/14 10:07:13;;;;;;;5.13;4.40;;;;;;;12.00;100.00;96272.16;5028021;28;102075;-68
2022/11/14 10:10:08;;;;;;;4.90;4.30;;;;;;;12.48;100.00;96270.97;5028004;28;102250;-68
2022/11/14 10:13:05;;;;;;;4.80;4.40;;;;;;;12.66;100.00;96268.59;5027980;28;101787;-68
2022/11/14 10:15:56;;;;;;;4.77;3.50;;;;;;;12.62;100.00;96274.72;5022370;28;102052;-68
2022/11/14 10:18:57;;;;;;;6.23;3.57;;;;;;;12.91;100.00;96271.25;5027638;28;102247;-68
2022/11/14 10:22:08;;;;;;;4.20;3.80;;;;;;;13.45;100.00;96274.97;5007891;28;101960;-68
2022/11/14 10:25:14;;;;;;;4.40;3.17;;;;;;;13.61;100.00;96281.88;5019894;28;102056;-68
2022/11/14 10:28:22;;;;;;;5.07;3.43;;;;;;;13.73;100.00;96285.03;5028443;28;101817;-66
2022/11/14 10:31:19;;;;;;;3.67;3.37;;;;;;;13.99;100.00;96275.03;5028021;28;102060;-66
2022/11/14 10:34:12;;;;;;;2.93;2.73;;;;;;;14.15;100.00;96276.56;5027173;28;102303;-67
2022/11/14 10:37:16;;;;;;;5.93;5.43;;;;;;;13.91;100.00;96283.63;5007953;28;101727;-68
2022/11/14 10:40:13;;;;;;;6.53;5.90;;;;;;;14.11;100.00;96280.88;5017929;28;102124;-66
2022/11/14 10:46:47;;;;;;;5.93;5.37;;;;;;;14.63;100.00;96281.13;5029140;28;101890;-66
2022/11/14 10:49:37;;;;;;;5.07;4.67;;;;;;;14.59;100.00;96280.91;5027733;28;102035;-66
2022/11/14 10:52:43;;;;;;;5.20;3.60;;;;;;;15.01;100.00;96277.63;5030614;28;102245;-66
2022/11/14 10:55:29;;;;;;;3.90;3.50;;;;;;;15.58;100.00;96270.44;5027573;28;102028;-67
2022/11/14 10:58:14;;;;;;;4.73;2.90;;;;;;;15.79;100.00;96268.31;5027217;28;102384;-66
2022/11/14 11:01:34;;;;;;;2.83;2.63;;;;;;;16.16;100.00;96265.72;5027409;28;103551;-67
2022/11/14 11:04:25;;;;;;;3.00;2.70;;;;;;;16.27;100.00;96269.88;5026628;28;102066;-67
2022/11/14 11:14:21;;;;;;;1.80;1.70;;;;;;;16.92;100.00;96260.91;5030251;28;102021;-67
2022/11/14 11:17:23;;;;;;;1.50;1.40;;;;;;;17.14;100.00;96258.38;5026847;28;102304;-67
2022/11/14 11:20:28;;;;;;;1.07;1.07;;;;;;;17.34;100.00;96255.34;5029947;28;101966;-67
2022/11/14 11:27:14;;;;;;;1.30;1.20;;;;;;;17.60;100.00;96251.16;5027241;28;102136;-66
2022/11/14 11:30:19;;;;;;;1.13;0.80;;;;;;;18.11;100.00;96240.97;5026681;28;102596;-68
2022/11/14 11:33:49;;;;;;;2.23;1.30;;;;;;;18.27;100.00;96234.97;5026469;28;102281;-67
2022/11/14 11:36:41;;;;;;;1.13;1.13;;;;;;;18.07;100.00;96230.00;5026534;28;101784;-65
2022/11/14 11:39:30;;;;;;;0.80;0.80;;;;;;;18.06;100.00;96222.22;5027023;28;102091;-68
2022/11/14 11:42:22;;;;;;;1.57;1.10;;;;;;;17.66;100.00;96229.22;5026725;28;102245;-67
2022/11/14 11:45:16;;;;;;;1.30;1.20;;;;;;;17.53;100.00;96234.59;5030004;28;102071;-68
2022/11/14 11:48:09;;;;;;;1.20;1.10;;;;;;;17.42;100.00;96238.56;5026105;28;102249;-66
2022/11/14 11:50:55;;;;;;;1.20;1.10;;;;;;;17.41;100.00;96237.78;5029050;27;101930;-66
2022/11/14 11:54:13;;;;;;;0.93;0.93;;;;;;;17.23;100.00;96235.13;5030489;28;102072;-67
2022/11/14 11:57:04;;;;;;;1.10;1.00;;;;;;;17.38;100.00;96242.94;5030201;28;102788;-67
2022/11/14 11:59:58;;;;;;;0.97;0.97;;;;;;;17.52;97.90;96241.06;5033272;28;103550;-66
2022/11/14 12:02:47;;;;;;;0.80;0.80;;;;;;;18.08;89.19;96222.72;5033399;28;102052;-66
2022/11/14 12:05:41;;;;;;;0.90;0.90;;;;;;;18.52;79.99;96220.19;5029859;28;102217;-67
2022/11/14 12:08:36;;;;;;;0.90;0.90;;;;;;;18.13;73.55;96241.44;5010360;28;101687;-67
2022/11/14 12:11:26;;;;;;;4.33;3.73;;;;;;;16.46;100.00;96244.66;5030718;27;101799;-67
2022/11/14 12:14:50;;;;;;;4.20;3.83;;;;;;;15.73;100.00;96242.66;5030500;28;101834;-67
2022/11/14 12:18:06;;;;;;;4.40;4.10;;;;;;;15.58;100.00;96238.25;5030341;28;102072;-67
2022/11/14 12:21:06;;;;;;;3.80;3.20;;;;;;;15.71;100.00;96239.47;5029329;28;102272;-66
2022/11/14 12:24:29;;;;;;;4.40;3.67;;;;;;;16.29;100.00;96230.16;5033577;28;101732;-66
2022/11/14 12:27:25;;;;;;;4.87;2.97;;;;;;;16.82;100.00;96228.81;5031132;28;102099;-66
2022/11/14 12:30:17;;;;;;;3.30;3.00;;;;;;;17.33;100.00;96238.41;5029576;28;102382;-66
2022/11/14 12:33:37;;;;;;;2.67;2.47;;;;;;;17.46;100.00;96234.19;5029993;28;101806;-66
2022/11/14 12:36:30;;;;;;;3.43;3.13;;;;;;;17.08;100.00;96240.75;5029921;28;102423;-67
2022/11/14 12:39:25;;;;;;;4.40;3.57;;;;;;;16.33;100.00;96241.88;5032685;28;101804;-67
2022/11/14 12:42:24;;;;;;;4.33;3.30;;;;;;;16.60;100.00;96242.06;5029847;28;102099;-67
2022/11/14 12:45:43;;;;;;;3.70;3.40;;;;;;;16.35;100.00;96247.78;5028120;28;103490;-67
2022/11/14 12:48:34;;;;;;;4.57;4.17;;;;;;;15.70;100.00;96251.28;5029959;28;101778;-67
2022/11/14 12:52:09;;;;;;;4.40;4.00;;;;;;;15.86;100.00;96250.81;5029262;28;102994;-66
2022/11/14 12:54:56;;;;;;;6.67;4.43;;;;;;;15.48;100.00;96267.06;5028571;28;102243;-68
2022/11/14 12:57:50;;;;;;;4.37;3.97;;;;;;;15.55;100.00;96267.53;5017058;28;102025;-68
2022/11/14 13:00:38;;;;;;;4.30;3.97;;;;;;;15.52;100.00;96274.25;5031877;27;102159;-68
2022/11/14 13:03:37;;;;;;;4.10;3.80;;;;;;;15.49;100.00;96271.34;5028369;28;102272;-73
2022/11/14 13:06:52;;;;;;;4.03;3.63;;;;;;;15.47;100.00;96268.94;5035559;28;101900;-68
2022/11/14 13:09:53;;;;;;;4.13;3.83;;;;;;;15.12;100.00;96268.44;5031610;28;102357;-65
2022/11/14 13:22:38;;;;;;;5.17;4.70;;;;;;;14.74;100.00;96285.34;5032128;28;101967;-68
2022/11/14 13:25:24;;;;;;;4.37;3.97;;;;;;;14.67;100.00;96288.31;5029194;28;102072;-68
2022/11/14 13:28:47;;;;;;;4.53;4.13;;;;;;;14.63;100.00;96292.66;5008499;28;102297;-68
2022/11/14 13:32:14;;;;;;;4.33;3.80;;;;;;;14.85;100.00;96289.56;5018036;28;101816;-67
2022/11/14 13:35:05;;;;;;;4.33;3.90;;;;;;;15.08;100.00;96296.84;5031425;28;102132;-67
2022/11/14 13:38:18;;;;;;;4.30;3.90;;;;;;;15.15;100.00;96306.16;5028672;28;102050;-66
2022/11/14 13:41:21;;;;;;;4.87;3.73;;;;;;;15.21;100.00;96315.75;5028868;28;102036;-66
2022/11/14 13:44:50;;;;;;;3.63;3.30;;;;;;;15.42;100.00;96311.06;5027849;28;102202;-66